sensor_id;sensor_type;location;lat;lon;timestamp;P1;durP1;ratioP1;P2;durP2;ratioP2
55692;SDS011;41590;53.366;5.212;2022-11-20T00:01:46;2.03;;;1.40;;
55692;SDS011;41590;53.366;5.212;2022-11-20T00:04:12;3.10;;;1.52;;
55692;SDS011;41590;53.366;5.212;2022-11-20T00:09:33;2.38;;;1.50;;
55692;SDS011;41590;53.366;5.212;2022-11-20T00:12:00;3.35;;;1.60;;
55692;SDS011;41590;53.366;5.212;2022-11-20T00:17:11;3.55;;;1.70;;
55692;SDS011;41590;53.366;5.212;2022-11-20T00:19:47;2.42;;;1.52;;
55692;SDS011;41590;53.366;5.212;2022-11-20T00:22:31;2.75;;;1.80;;
55692;SDS011;41590;53.366;5.212;2022-11-20T00:24:57;7.78;;;3.53;;
55692;SDS011;41590;53.366;5.212;2022-11-20T00:27:36;3.30;;;2.30;;
55692;SDS011;41590;53.366;5.212;2022-11-20T00:32:33;2.78;;;1.73;;
55692;SDS011;41590;53.366;5.212;2022-11-20T00:35:18;4.38;;;1.98;;
55692;SDS011;41590;53.366;5.212;2022-11-20T00:37:44;4.03;;;2.38;;
55692;SDS011;41590;53.366;5.212;2022-11-20T00:40:10;3.03;;;1.92;;
55692;SDS011;41590;53.366;5.212;2022-11-20T00:45:46;3.45;;;1.90;;
55692;SDS011;41590;53.366;5.212;2022-11-20T01:02:32;2.35;;;1.60;;
55692;SDS011;41590;53.366;5.212;2022-11-20T01:05:05;5.32;;;2.50;;
55692;SDS011;41590;53.366;5.212;2022-11-20T01:07:39;2.63;;;2.03;;
55692;SDS011;41590;53.366;5.212;2022-11-20T01:15:54;2.85;;;1.65;;
55692;SDS011;41590;53.366;5.212;2022-11-20T01:18:24;3.50;;;1.83;;
55692;SDS011;41590;53.366;5.212;2022-11-20T01:20:50;2.85;;;1.75;;
55692;SDS011;41590;53.366;5.212;2022-11-20T01:26:27;4.32;;;2.03;;
55692;SDS011;41590;53.366;5.212;2022-11-20T01:28:56;4.05;;;2.22;;
55692;SDS011;41590;53.366;5.212;2022-11-20T01:40:55;4.07;;;2.38;;
55692;SDS011;41590;53.366;5.212;2022-11-20T01:43:23;5.05;;;2.80;;
55692;SDS011;41590;53.366;5.212;2022-11-20T01:46:01;5.70;;;2.80;;
55692;SDS011;41590;53.366;5.212;2022-11-20T01:51:35;7.07;;;2.92;;
55692;SDS011;41590;53.366;5.212;2022-11-20T01:57:03;3.75;;;3.22;;
55692;SDS011;41590;53.366;5.212;2022-11-20T01:59:41;3.53;;;2.75;;
55692;SDS011;41590;53.366;5.212;2022-11-20T02:07:45;4.38;;;3.38;;
55692;SDS011;41590;53.366;5.212;2022-11-20T02:10:19;6.18;;;3.38;;
55692;SDS011;41590;53.366;5.212;2022-11-20T02:12:46;4.22;;;3.38;;
55692;SDS011;41590;53.366;5.212;2022-11-20T02:15:32;5.35;;;3.80;;
55692;SDS011;41590;53.366;5.212;2022-11-20T02:17:58;6.93;;;4.00;;
55692;SDS011;41590;53.366;5.212;2022-11-20T02:20:39;6.43;;;4.70;;
55692;SDS011;41590;53.366;5.212;2022-11-20T02:26:51;4.82;;;3.50;;
55692;SDS011;41590;53.366;5.212;2022-11-20T02:32:43;5.35;;;3.85;;
55692;SDS011;41590;53.366;5.212;2022-11-20T02:41:17;6.15;;;4.05;;
55692;SDS011;41590;53.366;5.212;2022-11-20T02:43:48;6.03;;;4.13;;
55692;SDS011;41590;53.366;5.212;2022-11-20T02:55:13;5.60;;;3.47;;
55692;SDS011;41590;53.366;5.212;2022-11-20T02:57:45;4.97;;;3.78;;
55692;SDS011;41590;53.366;5.212;2022-11-20T03:00:19;6.90;;;3.88;;
55692;SDS011;41590;53.366;5.212;2022-11-20T03:02:44;5.00;;;3.70;;
55692;SDS011;41590;53.366;5.212;2022-11-20T03:05:18;7.22;;;3.58;;
55692;SDS011;41590;53.366;5.212;2022-11-20T03:07:45;4.93;;;3.72;;
55692;SDS011;41590;53.366;5.212;2022-11-20T03:10:16;4.43;;;3.58;;
55692;SDS011;41590;53.366;5.212;2022-11-20T03:12:42;4.35;;;3.30;;
55692;SDS011;41590;53.366;5.212;2022-11-20T03:15:22;5.10;;;3.20;;
55692;SDS011;41590;53.366;5.212;2022-11-20T03:17:52;4.93;;;3.13;;
55692;SDS011;41590;53.366;5.212;2022-11-20T03:20:22;4.78;;;3.53;;
55692;SDS011;41590;53.366;5.212;2022-11-20T03:22:50;5.47;;;3.50;;
55692;SDS011;41590;53.366;5.212;2022-11-20T03:28:19;3.90;;;3.20;;
55692;SDS011;41590;53.366;5.212;2022-11-20T03:42:13;3.97;;;3.00;;
55692;SDS011;41590;53.366;5.212;2022-11-20T03:50:22;4.47;;;2.72;;
55692;SDS011;41590;53.366;5.212;2022-11-20T03:52:54;4.60;;;2.83;;
55692;SDS011;41590;53.366;5.212;2022-11-20T03:55:22;5.38;;;2.80;;
55692;SDS011;41590;53.366;5.212;2022-11-20T04:03:21;4.25;;;2.60;;
55692;SDS011;41590;53.366;5.212;2022-11-20T04:08:33;3.75;;;2.63;;
55692;SDS011;41590;53.366;5.212;2022-11-20T04:16:49;4.20;;;3.13;;
55692;SDS011;41590;53.366;5.212;2022-11-20T04:24:56;3.72;;;2.42;;
55692;SDS011;41590;53.366;5.212;2022-11-20T04:27:24;5.30;;;2.42;;
55692;SDS011;41590;53.366;5.212;2022-11-20T04:29:56;4.55;;;2.20;;
55692;SDS011;41590;53.366;5.212;2022-11-20T04:35:40;4.57;;;2.58;;
55692;SDS011;41590;53.366;5.212;2022-11-20T04:40:55;5.05;;;2.50;;
55692;SDS011;41590;53.366;5.212;2022-11-20T04:43:23;3.95;;;2.30;;
55692;SDS011;41590;53.366;5.212;2022-11-20T04:45:55;2.88;;;2.38;;
55692;SDS011;41590;53.366;5.212;2022-11-20T04:48:26;3.88;;;2.03;;
55692;SDS011;41590;53.366;5.212;2022-11-20T04:51:07;3.67;;;2.55;;
55692;SDS011;41590;53.366;5.212;2022-11-20T04:53:50;3.45;;;2.47;;
55692;SDS011;41590;53.366;5.212;2022-11-20T04:56:29;3.28;;;1.85;;
55692;SDS011;41590;53.366;5.212;2022-11-20T04:59:01;2.78;;;1.48;;
55692;SDS011;41590;53.366;5.212;2022-11-20T05:07:47;3.78;;;1.90;;
55692;SDS011;41590;53.366;5.212;2022-11-20T05:15:26;4.63;;;3.10;;
55692;SDS011;41590;53.366;5.212;2022-11-20T05:20:28;5.60;;;3.90;;
55692;SDS011;41590;53.366;5.212;2022-11-20T05:29:33;5.93;;;3.88;;
55692;SDS011;41590;53.366;5.212;2022-11-20T05:31:59;6.63;;;4.50;;
55692;SDS011;41590;53.366;5.212;2022-11-20T05:34:29;5.78;;;4.03;;
55692;SDS011;41590;53.366;5.212;2022-11-20T05:36:58;8.10;;;4.07;;
55692;SDS011;41590;53.366;5.212;2022-11-20T05:39:30;4.78;;;3.63;;
55692;SDS011;41590;53.366;5.212;2022-11-20T05:42:06;5.60;;;3.90;;
55692;SDS011;41590;53.366;5.212;2022-11-20T05:50:38;4.57;;;3.38;;
55692;SDS011;41590;53.366;5.212;2022-11-20T05:53:11;3.63;;;2.70;;
55692;SDS011;41590;53.366;5.212;2022-11-20T06:04:01;3.28;;;2.33;;
55692;SDS011;41590;53.366;5.212;2022-11-20T06:06:33;2.65;;;1.90;;
55692;SDS011;41590;53.366;5.212;2022-11-20T06:32:53;5.30;;;3.08;;
55692;SDS011;41590;53.366;5.212;2022-11-20T06:35:20;4.80;;;3.58;;
55692;SDS011;41590;53.366;5.212;2022-11-20T06:40:55;4.30;;;3.35;;
55692;SDS011;41590;53.366;5.212;2022-11-20T06:56:04;3.83;;;2.35;;
55692;SDS011;41590;53.366;5.212;2022-11-20T06:58:31;4.25;;;1.98;;
55692;SDS011;41590;53.366;5.212;2022-11-20T07:01:04;3.92;;;2.17;;
55692;SDS011;41590;53.366;5.212;2022-11-20T07:03:32;3.00;;;2.20;;
55692;SDS011;41590;53.366;5.212;2022-11-20T07:06:00;3.05;;;2.13;;
55692;SDS011;41590;53.366;5.212;2022-11-20T07:08:37;4.25;;;1.88;;
55692;SDS011;41590;53.366;5.212;2022-11-20T07:11:05;2.35;;;1.80;;
55692;SDS011;41590;53.366;5.212;2022-11-20T07:13:32;13.82;;;3.13;;
55692;SDS011;41590;53.366;5.212;2022-11-20T07:16:06;2.70;;;2.00;;
55692;SDS011;41590;53.366;5.212;2022-11-20T07:21:07;3.58;;;1.80;;
55692;SDS011;41590;53.366;5.212;2022-11-20T07:23:35;2.33;;;1.90;;
55692;SDS011;41590;53.366;5.212;2022-11-20T07:26:05;4.05;;;2.45;;
55692;SDS011;41590;53.366;5.212;2022-11-20T07:28:34;3.63;;;2.55;;
55692;SDS011;41590;53.366;5.212;2022-11-20T07:31:05;4.32;;;2.67;;
55692;SDS011;41590;53.366;5.212;2022-11-20T07:33:34;4.28;;;2.60;;
55692;SDS011;41590;53.366;5.212;2022-11-20T07:36:10;3.75;;;2.58;;
55692;SDS011;41590;53.366;5.212;2022-11-20T07:43:44;4.60;;;2.75;;
55692;SDS011;41590;53.366;5.212;2022-11-20T07:49:03;4.53;;;2.58;;
55692;SDS011;41590;53.366;5.212;2022-11-20T07:51:36;3.60;;;2.25;;
55692;SDS011;41590;53.366;5.212;2022-11-20T07:57:42;4.72;;;3.83;;
55692;SDS011;41590;53.366;5.212;2022-11-20T08:00:25;5.50;;;4.22;;
55692;SDS011;41590;53.366;5.212;2022-11-20T08:03:03;6.75;;;4.40;;
55692;SDS011;41590;53.366;5.212;2022-11-20T08:05:29;8.05;;;6.68;;
55692;SDS011;41590;53.366;5.212;2022-11-20T08:22:15;4.57;;;3.30;;
55692;SDS011;41590;53.366;5.212;2022-11-20T08:24:43;5.97;;;4.20;;
55692;SDS011;41590;53.366;5.212;2022-11-20T08:33:15;8.25;;;4.50;;
55692;SDS011;41590;53.366;5.212;2022-11-20T08:35:51;6.07;;;4.20;;
55692;SDS011;41590;53.366;5.212;2022-11-20T08:38:35;6.57;;;4.90;;
55692;SDS011;41590;53.366;5.212;2022-11-20T08:41:07;9.02;;;5.07;;
55692;SDS011;41590;53.366;5.212;2022-11-20T08:46:40;6.10;;;4.55;;
55692;SDS011;41590;53.366;5.212;2022-11-20T08:49:10;7.35;;;4.30;;
55692;SDS011;41590;53.366;5.212;2022-11-20T08:54:30;6.47;;;4.70;;
55692;SDS011;41590;53.366;5.212;2022-11-20T08:57:10;7.32;;;4.78;;
55692;SDS011;41590;53.366;5.212;2022-11-20T09:06:12;6.07;;;4.95;;
55692;SDS011;41590;53.366;5.212;2022-11-20T09:08:41;5.95;;;4.55;;
55692;SDS011;41590;53.366;5.212;2022-11-20T09:11:12;7.88;;;5.00;;
55692;SDS011;41590;53.366;5.212;2022-11-20T09:30:46;7.50;;;5.47;;
55692;SDS011;41590;53.366;5.212;2022-11-20T09:33:13;8.23;;;5.97;;
55692;SDS011;41590;53.366;5.212;2022-11-20T09:35:40;9.23;;;6.43;;
55692;SDS011;41590;53.366;5.212;2022-11-20T09:38:17;9.55;;;6.47;;
55692;SDS011;41590;53.366;5.212;2022-11-20T09:41:02;8.70;;;5.80;;
55692;SDS011;41590;53.366;5.212;2022-11-20T09:55:18;12.60;;;7.63;;
55692;SDS011;41590;53.366;5.212;2022-11-20T09:57:48;9.43;;;6.85;;
55692;SDS011;41590;53.366;5.212;2022-11-20T10:00:16;10.55;;;7.20;;
55692;SDS011;41590;53.366;5.212;2022-11-20T10:05:48;10.25;;;6.68;;
55692;SDS011;41590;53.366;5.212;2022-11-20T10:08:24;10.18;;;6.95;;
55692;SDS011;41590;53.366;5.212;2022-11-20T10:26:22;11.23;;;7.88;;
55692;SDS011;41590;53.366;5.212;2022-11-20T10:44:00;9.90;;;7.50;;
55692;SDS011;41590;53.366;5.212;2022-11-20T11:06:22;8.32;;;6.38;;
55692;SDS011;41590;53.366;5.212;2022-11-20T11:09:16;8.40;;;6.20;;
55692;SDS011;41590;53.366;5.212;2022-11-20T11:24:29;4.40;;;3.28;;
55692;SDS011;41590;53.366;5.212;2022-11-20T11:27:03;5.75;;;3.42;;
55692;SDS011;41590;53.366;5.212;2022-11-20T11:30:01;5.65;;;3.75;;
55692;SDS011;41590;53.366;5.212;2022-11-20T11:32:36;4.10;;;3.30;;
55692;SDS011;41590;53.366;5.212;2022-11-20T11:35:19;5.15;;;3.13;;
55692;SDS011;41590;53.366;5.212;2022-11-20T11:38:01;6.72;;;3.78;;
55692;SDS011;41590;53.366;5.212;2022-11-20T11:40:39;6.10;;;3.70;;
55692;SDS011;41590;53.366;5.212;2022-11-20T11:49:24;5.50;;;2.92;;
55692;SDS011;41590;53.366;5.212;2022-11-20T12:00:16;13.38;;;8.07;;
55692;SDS011;41590;53.366;5.212;2022-11-20T12:11:52;20.70;;;10.25;;
55692;SDS011;41590;53.366;5.212;2022-11-20T12:17:16;11.45;;;8.20;;
55692;SDS011;41590;53.366;5.212;2022-11-20T12:19:47;10.40;;;7.18;;
55692;SDS011;41590;53.366;5.212;2022-11-20T12:30:10;14.23;;;9.02;;
55692;SDS011;41590;53.366;5.212;2022-11-20T12:49:51;8.83;;;6.10;;
55692;SDS011;41590;53.366;5.212;2022-11-20T13:00:08;10.82;;;8.43;;
55692;SDS011;41590;53.366;5.212;2022-11-20T13:07:46;9.43;;;7.68;;
55692;SDS011;41590;53.366;5.212;2022-11-20T13:10:19;10.73;;;7.60;;
55692;SDS011;41590;53.366;5.212;2022-11-20T13:12:47;8.02;;;7.05;;
55692;SDS011;41590;53.366;5.212;2022-11-20T13:18:06;9.27;;;7.32;;
55692;SDS011;41590;53.366;5.212;2022-11-20T13:20:35;9.98;;;6.82;;
55692;SDS011;41590;53.366;5.212;2022-11-20T13:23:07;9.85;;;7.50;;
55692;SDS011;41590;53.366;5.212;2022-11-20T13:25:40;12.20;;;8.57;;
55692;SDS011;41590;53.366;5.212;2022-11-20T13:31:29;9.52;;;7.35;;
55692;SDS011;41590;53.366;5.212;2022-11-20T13:33:55;8.30;;;6.15;;
55692;SDS011;41590;53.366;5.212;2022-11-20T13:42:01;11.50;;;8.50;;
55692;SDS011;41590;53.366;5.212;2022-11-20T13:51:48;11.70;;;8.02;;
55692;SDS011;41590;53.366;5.212;2022-11-20T14:16:32;16.35;;;10.57;;
55692;SDS011;41590;53.366;5.212;2022-11-20T14:19:19;11.73;;;8.88;;
55692;SDS011;41590;53.366;5.212;2022-11-20T14:22:16;12.75;;;8.93;;
55692;SDS011;41590;53.366;5.212;2022-11-20T14:24:48;13.05;;;9.10;;
55692;SDS011;41590;53.366;5.212;2022-11-20T14:27:26;14.00;;;8.25;;
55692;SDS011;41590;53.366;5.212;2022-11-20T14:29:52;10.63;;;8.50;;
55692;SDS011;41590;53.366;5.212;2022-11-20T14:32:21;11.95;;;6.82;;
55692;SDS011;41590;53.366;5.212;2022-11-20T14:34:53;13.20;;;8.68;;
55692;SDS011;41590;53.366;5.212;2022-11-20T14:37:20;11.65;;;7.25;;
55692;SDS011;41590;53.366;5.212;2022-11-20T14:39:52;10.30;;;7.80;;
55692;SDS011;41590;53.366;5.212;2022-11-20T14:42:24;12.05;;;7.72;;
55692;SDS011;41590;53.366;5.212;2022-11-20T14:44:54;13.45;;;7.53;;
55692;SDS011;41590;53.366;5.212;2022-11-20T14:47:24;11.80;;;7.40;;
55692;SDS011;41590;53.366;5.212;2022-11-20T14:49:53;13.02;;;9.38;;
55692;SDS011;41590;53.366;5.212;2022-11-20T14:52:22;17.50;;;10.32;;
55692;SDS011;41590;53.366;5.212;2022-11-20T14:54:53;15.93;;;8.45;;
55692;SDS011;41590;53.366;5.212;2022-11-20T14:57:29;36.45;;;25.50;;
55692;SDS011;41590;53.366;5.212;2022-11-20T15:00:18;18.50;;;9.70;;
55692;SDS011;41590;53.366;5.212;2022-11-20T15:05:22;10.48;;;6.97;;
55692;SDS011;41590;53.366;5.212;2022-11-20T15:08:07;11.27;;;8.13;;
55692;SDS011;41590;53.366;5.212;2022-11-20T15:10:35;8.05;;;6.18;;
55692;SDS011;41590;53.366;5.212;2022-11-20T15:13:06;9.05;;;6.35;;
55692;SDS011;41590;53.366;5.212;2022-11-20T15:15:53;12.45;;;8.80;;
55692;SDS011;41590;53.366;5.212;2022-11-20T15:18:32;7.97;;;6.22;;
55692;SDS011;41590;53.366;5.212;2022-11-20T15:21:10;10.13;;;7.22;;
55692;SDS011;41590;53.366;5.212;2022-11-20T15:26:08;21.00;;;13.02;;
55692;SDS011;41590;53.366;5.212;2022-11-20T15:28:40;18.10;;;12.05;;
55692;SDS011;41590;53.366;5.212;2022-11-20T15:31:17;80.13;;;33.45;;
55692;SDS011;41590;53.366;5.212;2022-11-20T15:33:48;66.97;;;28.45;;
55692;SDS011;41590;53.366;5.212;2022-11-20T15:36:19;14.93;;;9.85;;
55692;SDS011;41590;53.366;5.212;2022-11-20T15:38:46;12.82;;;9.52;;
55692;SDS011;41590;53.366;5.212;2022-11-20T15:41:12;17.92;;;11.82;;
55692;SDS011;41590;53.366;5.212;2022-11-20T15:43:42;41.85;;;18.40;;
55692;SDS011;41590;53.366;5.212;2022-11-20T15:46:13;28.30;;;14.43;;
55692;SDS011;41590;53.366;5.212;2022-11-20T15:48:54;33.38;;;18.10;;
55692;SDS011;41590;53.366;5.212;2022-11-20T15:53:54;98.50;;;42.28;;
55692;SDS011;41590;53.366;5.212;2022-11-20T15:56:22;33.65;;;19.17;;
55692;SDS011;41590;53.366;5.212;2022-11-20T15:58:55;15.05;;;10.13;;
55692;SDS011;41590;53.366;5.212;2022-11-20T16:03:55;13.60;;;9.05;;
55692;SDS011;41590;53.366;5.212;2022-11-20T16:11:45;13.25;;;9.85;;
55692;SDS011;41590;53.366;5.212;2022-11-20T16:17:12;52.17;;;22.20;;
55692;SDS011;41590;53.366;5.212;2022-11-20T16:22:38;30.45;;;18.75;;
55692;SDS011;41590;53.366;5.212;2022-11-20T16:25:11;14.63;;;10.60;;
55692;SDS011;41590;53.366;5.212;2022-11-20T16:30:04;14.88;;;9.40;;
55692;SDS011;41590;53.366;5.212;2022-11-20T16:32:30;13.25;;;9.18;;
55692;SDS011;41590;53.366;5.212;2022-11-20T16:34:59;15.57;;;10.73;;
55692;SDS011;41590;53.366;5.212;2022-11-20T16:37:28;13.75;;;9.38;;
55692;SDS011;41590;53.366;5.212;2022-11-20T16:39:54;11.63;;;8.13;;
55692;SDS011;41590;53.366;5.212;2022-11-20T16:42:24;14.88;;;9.48;;
55692;SDS011;41590;53.366;5.212;2022-11-20T16:44:50;14.18;;;9.50;;
55692;SDS011;41590;53.366;5.212;2022-11-20T16:47:17;11.75;;;8.45;;
55692;SDS011;41590;53.366;5.212;2022-11-20T16:49:44;12.77;;;9.27;;
55692;SDS011;41590;53.366;5.212;2022-11-20T16:52:11;12.77;;;10.25;;
55692;SDS011;41590;53.366;5.212;2022-11-20T16:54:37;14.00;;;9.45;;
55692;SDS011;41590;53.366;5.212;2022-11-20T16:57:04;16.67;;;11.65;;
55692;SDS011;41590;53.366;5.212;2022-11-20T16:59:31;13.27;;;9.57;;
55692;SDS011;41590;53.366;5.212;2022-11-20T17:01:59;18.42;;;12.20;;
55692;SDS011;41590;53.366;5.212;2022-11-20T17:04:25;14.13;;;10.45;;
55692;SDS011;41590;53.366;5.212;2022-11-20T17:06:50;18.70;;;10.80;;
55692;SDS011;41590;53.366;5.212;2022-11-20T17:09:18;15.68;;;10.10;;
55692;SDS011;41590;53.366;5.212;2022-11-20T17:11:47;12.02;;;8.65;;
55692;SDS011;41590;53.366;5.212;2022-11-20T17:14:14;66.70;;;32.67;;
55692;SDS011;41590;53.366;5.212;2022-11-20T17:16:41;13.68;;;9.55;;
55692;SDS011;41590;53.366;5.212;2022-11-20T17:21:43;13.63;;;8.57;;
55692;SDS011;41590;53.366;5.212;2022-11-20T17:24:10;14.52;;;9.45;;
55692;SDS011;41590;53.366;5.212;2022-11-20T17:26:38;11.02;;;8.63;;
55692;SDS011;41590;53.366;5.212;2022-11-20T17:29:07;19.70;;;9.13;;
55692;SDS011;41590;53.366;5.212;2022-11-20T17:31:46;11.77;;;9.05;;
55692;SDS011;41590;53.366;5.212;2022-11-20T17:34:13;12.90;;;9.05;;
55692;SDS011;41590;53.366;5.212;2022-11-20T17:36:40;12.65;;;9.88;;
55692;SDS011;41590;53.366;5.212;2022-11-20T17:39:09;15.35;;;9.73;;
55692;SDS011;41590;53.366;5.212;2022-11-20T17:41:38;13.43;;;10.00;;
55692;SDS011;41590;53.366;5.212;2022-11-20T17:44:08;15.50;;;10.73;;
55692;SDS011;41590;53.366;5.212;2022-11-20T17:49:04;13.40;;;10.52;;
55692;SDS011;41590;53.366;5.212;2022-11-20T17:51:33;14.10;;;11.20;;
55692;SDS011;41590;53.366;5.212;2022-11-20T17:54:01;18.63;;;12.43;;
55692;SDS011;41590;53.366;5.212;2022-11-20T17:56:33;19.25;;;11.82;;
55692;SDS011;41590;53.366;5.212;2022-11-20T17:59:25;16.65;;;11.30;;
55692;SDS011;41590;53.366;5.212;2022-11-20T18:02:03;14.13;;;10.75;;
55692;SDS011;41590;53.366;5.212;2022-11-20T18:04:30;14.57;;;11.48;;
55692;SDS011;41590;53.366;5.212;2022-11-20T18:10:13;21.88;;;14.45;;
55692;SDS011;41590;53.366;5.212;2022-11-20T18:15:09;18.85;;;14.57;;
55692;SDS011;41590;53.366;5.212;2022-11-20T18:17:41;16.27;;;11.48;;
55692;SDS011;41590;53.366;5.212;2022-11-20T18:20:13;19.08;;;16.00;;
55692;SDS011;41590;53.366;5.212;2022-11-20T18:22:40;14.57;;;10.77;;
55692;SDS011;41590;53.366;5.212;2022-11-20T18:25:06;17.48;;;12.35;;
55692;SDS011;41590;53.366;5.212;2022-11-20T18:27:33;14.90;;;11.23;;
55692;SDS011;41590;53.366;5.212;2022-11-20T18:30:02;14.82;;;10.60;;
55692;SDS011;41590;53.366;5.212;2022-11-20T18:32:30;15.98;;;11.35;;
55692;SDS011;41590;53.366;5.212;2022-11-20T18:34:55;16.27;;;11.23;;
55692;SDS011;41590;53.366;5.212;2022-11-20T18:37:21;14.52;;;10.95;;
55692;SDS011;41590;53.366;5.212;2022-11-20T18:39:54;15.52;;;11.82;;
55692;SDS011;41590;53.366;5.212;2022-11-20T18:42:23;20.67;;;12.57;;
55692;SDS011;41590;53.366;5.212;2022-11-20T18:45:08;17.55;;;12.20;;
55692;SDS011;41590;53.366;5.212;2022-11-20T18:47:36;17.15;;;12.85;;
55692;SDS011;41590;53.366;5.212;2022-11-20T18:50:04;15.25;;;11.73;;
55692;SDS011;41590;53.366;5.212;2022-11-20T18:52:39;19.80;;;13.32;;
55692;SDS011;41590;53.366;5.212;2022-11-20T18:55:13;31.02;;;19.30;;
55692;SDS011;41590;53.366;5.212;2022-11-20T18:57:45;32.35;;;18.98;;
55692;SDS011;41590;53.366;5.212;2022-11-20T19:00:12;61.10;;;29.60;;
55692;SDS011;41590;53.366;5.212;2022-11-20T19:05:12;26.40;;;18.25;;
55692;SDS011;41590;53.366;5.212;2022-11-20T19:07:40;20.40;;;14.30;;
55692;SDS011;41590;53.366;5.212;2022-11-20T19:10:06;19.55;;;13.95;;
55692;SDS011;41590;53.366;5.212;2022-11-20T19:15:16;19.63;;;14.02;;
55692;SDS011;41590;53.366;5.212;2022-11-20T19:17:42;13.88;;;9.95;;
55692;SDS011;41590;53.366;5.212;2022-11-20T19:20:08;21.40;;;13.43;;
55692;SDS011;41590;53.366;5.212;2022-11-20T19:22:34;16.50;;;12.85;;
55692;SDS011;41590;53.366;5.212;2022-11-20T19:27:53;19.00;;;12.98;;
55692;SDS011;41590;53.366;5.212;2022-11-20T19:32:57;17.38;;;13.90;;
55692;SDS011;41590;53.366;5.212;2022-11-20T19:35:25;23.02;;;15.07;;
55692;SDS011;41590;53.366;5.212;2022-11-20T19:37:54;19.73;;;14.00;;
55692;SDS011;41590;53.366;5.212;2022-11-20T19:40:21;20.80;;;14.60;;
55692;SDS011;41590;53.366;5.212;2022-11-20T19:43:05;17.35;;;13.30;;
55692;SDS011;41590;53.366;5.212;2022-11-20T19:45:45;19.45;;;13.25;;
55692;SDS011;41590;53.366;5.212;2022-11-20T19:48:20;18.30;;;13.18;;
55692;SDS011;41590;53.366;5.212;2022-11-20T19:50:45;19.58;;;13.07;;
55692;SDS011;41590;53.366;5.212;2022-11-20T19:53:11;18.08;;;13.05;;
55692;SDS011;41590;53.366;5.212;2022-11-20T19:59:14;25.08;;;16.38;;
55692;SDS011;41590;53.366;5.212;2022-11-20T20:01:45;23.45;;;16.52;;
55692;SDS011;41590;53.366;5.212;2022-11-20T20:06:54;18.88;;;13.95;;
55692;SDS011;41590;53.366;5.212;2022-11-20T20:09:26;20.02;;;12.52;;
55692;SDS011;41590;53.366;5.212;2022-11-20T20:11:55;20.48;;;14.48;;
55692;SDS011;41590;53.366;5.212;2022-11-20T20:14:28;18.73;;;14.80;;
55692;SDS011;41590;53.366;5.212;2022-11-20T20:17:06;20.98;;;14.93;;
55692;SDS011;41590;53.366;5.212;2022-11-20T20:24:33;23.05;;;15.40;;
55692;SDS011;41590;53.366;5.212;2022-11-20T20:29:46;19.45;;;13.57;;
55692;SDS011;41590;53.366;5.212;2022-11-20T20:35:16;22.27;;;14.77;;
55692;SDS011;41590;53.366;5.212;2022-11-20T20:37:55;19.92;;;14.05;;
55692;SDS011;41590;53.366;5.212;2022-11-20T20:40:26;18.52;;;14.05;;
55692;SDS011;41590;53.366;5.212;2022-11-20T20:48:08;35.60;;;23.13;;
55692;SDS011;41590;53.366;5.212;2022-11-20T20:55:35;31.98;;;26.63;;
55692;SDS011;41590;53.366;5.212;2022-11-20T20:58:20;27.25;;;20.63;;
55692;SDS011;41590;53.366;5.212;2022-11-20T21:12:33;24.75;;;15.88;;
55692;SDS011;41590;53.366;5.212;2022-11-20T21:15:02;25.42;;;16.17;;
55692;SDS011;41590;53.366;5.212;2022-11-20T21:17:30;22.10;;;15.48;;
55692;SDS011;41590;53.366;5.212;2022-11-20T21:19:58;20.77;;;14.80;;
55692;SDS011;41590;53.366;5.212;2022-11-20T21:22:30;20.17;;;14.23;;
55692;SDS011;41590;53.366;5.212;2022-11-20T21:24:57;21.23;;;15.00;;
55692;SDS011;41590;53.366;5.212;2022-11-20T21:27:32;20.30;;;15.23;;
55692;SDS011;41590;53.366;5.212;2022-11-20T21:30:03;22.45;;;15.45;;
55692;SDS011;41590;53.366;5.212;2022-11-20T21:32:32;23.25;;;16.67;;
55692;SDS011;41590;53.366;5.212;2022-11-20T21:35:08;28.17;;;18.95;;
55692;SDS011;41590;53.366;5.212;2022-11-20T21:37:45;25.90;;;15.70;;
55692;SDS011;41590;53.366;5.212;2022-11-20T21:40:29;25.83;;;17.63;;
55692;SDS011;41590;53.366;5.212;2022-11-20T21:42:56;23.73;;;16.88;;
55692;SDS011;41590;53.366;5.212;2022-11-20T21:47:53;51.03;;;25.88;;
55692;SDS011;41590;53.366;5.212;2022-11-20T21:50:20;38.05;;;23.40;;
55692;SDS011;41590;53.366;5.212;2022-11-20T21:52:48;29.83;;;19.42;;
55692;SDS011;41590;53.366;5.212;2022-11-20T21:55:18;22.00;;;16.45;;
55692;SDS011;41590;53.366;5.212;2022-11-20T22:00:43;22.95;;;16.33;;
55692;SDS011;41590;53.366;5.212;2022-11-20T22:06:55;24.85;;;17.15;;
55692;SDS011;41590;53.366;5.212;2022-11-20T22:22:59;21.70;;;15.30;;
55692;SDS011;41590;53.366;5.212;2022-11-20T22:27:55;22.95;;;15.82;;
55692;SDS011;41590;53.366;5.212;2022-11-20T22:30:21;23.05;;;16.02;;
55692;SDS011;41590;53.366;5.212;2022-11-20T22:33:03;21.08;;;15.35;;
55692;SDS011;41590;53.366;5.212;2022-11-20T22:35:31;23.92;;;16.23;;
55692;SDS011;41590;53.366;5.212;2022-11-20T22:38:08;23.05;;;16.92;;
55692;SDS011;41590;53.366;5.212;2022-11-20T22:40:34;20.85;;;15.85;;
55692;SDS011;41590;53.366;5.212;2022-11-20T22:45:52;24.67;;;17.13;;
55692;SDS011;41590;53.366;5.212;2022-11-20T22:48:19;23.48;;;17.20;;
55692;SDS011;41590;53.366;5.212;2022-11-20T22:53:14;22.48;;;16.60;;
55692;SDS011;41590;53.366;5.212;2022-11-20T22:55:40;23.15;;;16.67;;
55692;SDS011;41590;53.366;5.212;2022-11-20T22:58:07;25.45;;;16.65;;
55692;SDS011;41590;53.366;5.212;2022-11-20T23:00:39;24.58;;;17.30;;
55692;SDS011;41590;53.366;5.212;2022-11-20T23:03:05;23.65;;;17.52;;
55692;SDS011;41590;53.366;5.212;2022-11-20T23:05:31;23.67;;;17.52;;
55692;SDS011;41590;53.366;5.212;2022-11-20T23:13:20;28.10;;;18.33;;
55692;SDS011;41590;53.366;5.212;2022-11-20T23:19:00;26.23;;;18.85;;
55692;SDS011;41590;53.366;5.212;2022-11-20T23:21:29;27.10;;;18.98;;
55692;SDS011;41590;53.366;5.212;2022-11-20T23:26:47;26.80;;;17.77;;
55692;SDS011;41590;53.366;5.212;2022-11-20T23:32:18;25.60;;;17.30;;
55692;SDS011;41590;53.366;5.212;2022-11-20T23:34:45;23.23;;;17.85;;
55692;SDS011;41590;53.366;5.212;2022-11-20T23:43:26;28.08;;;16.77;;
55692;SDS011;41590;53.366;5.212;2022-11-20T23:49:33;26.63;;;17.88;;
55692;SDS011;41590;53.366;5.212;2022-11-20T23:55:48;25.50;;;17.52;;
55692;SDS011;41590;53.366;5.212;2022-11-20T23:58:24;24.75;;;16.58;;
